• Join FlightAware (Why Join?)
  • Login
  • US Flag 
01:07PM EDT


 

Airport Tracker/Info


-or-


 

Live Flight TrackerFlight Track Log ✈ N52944 ✈ 22-Jul-2013 ✈ KLKR - KSVH

Flight Track Log - Related Links

Times and Time Zones

All times are in EDT time to prevent confusion due to time zone crossing. See the N52944 flight status page for this flight to view local times or setup timezone preferences in your user account.

Time Position Orientation Groundspeed Altitude Reporting Facility
EDT Latitude Longitude Course Direction KTS MPH feet Rate Location/Type
01:01PM 34.7200 -80.8825 314° West 71 82 1,300  Level Atlanta Center
01:02PM 34.7372 -80.9044 314° West 97 112 2,000 780 Climbing Atlanta Center
01:03PM 34.7544 -80.9242 317° Northwest 96 110 2,800 480 Climbing Atlanta Center
01:04PM 34.7678 -80.9564 297° West 102 117 3,000 360 Climbing Atlanta Center
01:05PM 34.7892 -80.9808 317° Northwest 119 137 3,600 480 Climbing Atlanta Center
01:06PM 34.8200 -80.9597 29° Northeast 124 143 4,000 180 Climbing Atlanta Center
01:07PM 34.8506 -80.9281 40° Northeast 142 163 4,000  Level Atlanta Center
01:08PM 34.8831 -80.8992 36° Northeast 148 170 4,000  Level Atlanta Center
01:09PM 34.9156 -80.8572 47° Northeast 147 169 4,000  Level Atlanta Center
01:10PM 34.9417 -80.8183 51° Northeast 145 167 4,000  Level Atlanta Center
01:11PM 34.9639 -80.7894 47° Northeast 142 163 4,000  Level Atlanta Center
01:13PM 34.9958 -80.7428 50° Northeast 143 165 4,000  Level Atlanta Center
01:13PM 35.0181 -80.7164 44° Northeast 146 168 4,000  Level Atlanta Center
01:14PM 35.0464 -80.6797 47° Northeast 145 167 4,000  Level Atlanta Center
01:15PM 35.0767 -80.6456 43° Northeast 140 161 4,000  Level Atlanta Center
01:16PM 35.1117 -80.6239 27° Northeast 144 166 4,000  Level Atlanta Center
01:17PM 35.1486 -80.6019 26° Northeast 145 167 4,000  Level Atlanta Center
01:19PM 35.1894 -80.5750 28° Northeast 146 168 4,000  Level Atlanta Center
01:20PM 35.2264 -80.5556 23° Northeast 145 167 4,000  Level Atlanta Center
01:21PM 35.2633 -80.5336 26° Northeast 145 167 4,000  Level Atlanta Center
01:22PM 35.3053 -80.5394 354° North 143 165 4,000  Level Atlanta Center
01:23PM 35.3431 -80.5431 356° North 141 162 4,000  Level Atlanta Center
01:24PM 35.3850 -80.5514 351° North 139 160 4,000  Level Atlanta Center
01:25PM 35.4228 -80.5600 349° North 139 160 4,000  Level Atlanta Center
01:26PM 35.4625 -80.5633 356° North 137 158 4,000 -60 Level Atlanta Center
01:27PM 35.4983 -80.5719 349° North 140 161 3,900 -240 Descending Atlanta Center
01:28PM 35.5400 -80.5781 353° North 143 165 3,600 -420 Descending Atlanta Center
01:29PM 35.5800 -80.5864 350° North 141 162 3,100 -300 Descending Atlanta Center
01:30PM 35.6058 -80.6136 319° Northwest 126 145 3,000 -60 Descending Atlanta Center
01:31PM 35.6256 -80.6511 303° West 125 144 3,000  Level Atlanta Center
01:32PM 35.6411 -80.6861 299° West 130 150 3,000  Level Atlanta Center
01:33PM 35.6653 -80.7311 303° West 130 150 3,000  Level Atlanta Center
01:34PM 35.6853 -80.7739 300° West 155 178 3,000  Level Atlanta Center
01:35PM 35.7131 -80.8008 322° Northwest 133 153 3,000 -60 Level Atlanta Center
01:36PM 35.7450 -80.8250 328° Northwest 129 148 2,900 -120 Descending Atlanta Center